Time;durP1;ratioP1;P1;durP2;ratioP2;P2;SDS_P1;SDS_P2;PMS_P1;PMS_P2;Temp;Humidity;BMP_temperature;BMP_pressure;BME280_temperature;BME280_humidity;BME280_pressure;Samples;Min_cycle;Max_cycle;Signal;HPM_P1;HPM_P2
2022/06/26 00:01:55;;;;;;;15.35;4.50;;;;;;;30.04;64.19;100795.09;5074272;28;71591;-32
2022/06/26 00:04:26;;;;;;;6.82;5.47;;;;;;;30.06;65.93;100798.41;5076165;28;66773;-32
2022/06/26 00:06:59;;;;;;;6.15;5.72;;;;;;;30.03;67.84;100798.84;5072693;28;70710;-32
2022/06/26 00:09:31;;;;;;;10.90;6.32;;;;;;;30.10;67.14;100793.41;5074187;28;66654;-32
2022/06/26 00:12:02;;;;;;;5.03;4.43;;;;;;;30.05;67.84;100783.22;5076001;27;68756;-32
2022/06/26 00:14:33;;;;;;;5.68;5.38;;;;;;;30.06;67.50;100783.03;5075938;28;65788;-31
2022/06/26 00:17:05;;;;;;;5.78;5.28;;;;;;;30.08;68.08;100785.50;5080149;28;70264;-32
2022/06/26 00:19:36;;;;;;;5.20;4.75;;;;;;;29.96;69.43;100782.66;5076336;28;66296;-32
2022/06/26 00:22:08;;;;;;;10.35;6.80;;;;;;;30.06;69.39;100787.59;5073041;28;69296;-32
2022/06/26 00:24:42;;;;;;;8.57;6.97;;;;;;;30.08;69.55;100793.63;5080856;27;66397;-32
2022/06/26 00:27:13;;;;;;;7.15;6.45;;;;;;;30.10;69.90;100794.22;5079536;28;70330;-32
2022/06/26 00:29:44;;;;;;;6.10;5.63;;;;;;;30.11;68.60;100795.06;5059951;28;65090;-31
2022/06/26 00:32:15;;;;;;;11.35;5.72;;;;;;;30.12;69.08;100794.84;5079932;28;70306;-33
2022/06/26 00:34:46;;;;;;;11.25;6.65;;;;;;;30.16;69.89;100790.66;5081318;28;65616;-31
2022/06/26 00:37:17;;;;;;;7.75;6.47;;;;;;;30.25;69.94;100796.66;5078900;28;70053;-32
2022/06/26 00:39:48;;;;;;;7.18;6.57;;;;;;;30.30;69.20;100799.53;5081106;28;65408;-32
2022/06/26 00:42:19;;;;;;;13.52;6.15;;;;;;;30.38;68.13;100801.16;5063114;28;69876;-32
2022/06/26 00:44:52;;;;;;;6.77;6.10;;;;;;;30.37;68.79;100802.19;5077108;28;65946;-31
2022/06/26 00:47:23;;;;;;;8.60;6.20;;;;;;;30.45;68.07;100804.63;5075052;28;70148;-30
2022/06/26 00:49:54;;;;;;;11.15;4.90;;;;;;;30.46;68.47;100807.13;5078945;28;66092;-32
2022/06/26 00:52:28;;;;;;;5.60;5.10;;;;;;;30.21;68.89;100763.78;5078571;28;69698;-30
2022/06/26 00:54:59;;;;;;;9.73;5.70;;;;;;;30.59;67.53;100814.34;5078378;28;66431;-32
2022/06/26 00:57:33;;;;;;;10.30;5.75;;;;;;;30.60;68.41;100810.56;5076331;28;69961;-33
2022/06/26 01:00:07;;;;;;;13.48;9.50;;;;;;;30.66;68.57;100812.41;5078852;28;66868;-31
2022/06/26 01:02:38;;;;;;;12.40;8.32;;;;;;;30.65;68.32;100808.03;5075671;27;69369;-32
2022/06/26 01:05:10;;;;;;;9.85;7.05;;;;;;;30.73;68.16;100820.50;5078145;28;65562;-32
2022/06/26 01:07:43;;;;;;;7.40;6.70;;;;;;;30.75;68.86;100812.13;5059120;28;70301;-32
2022/06/26 01:10:14;;;;;;;12.73;5.95;;;;;;;30.78;68.89;100811.69;5056515;28;66358;-33
2022/06/26 01:12:46;;;;;;;9.75;8.23;;;;;;;30.81;68.85;100822.91;5065785;28;69474;-33
2022/06/26 01:15:19;;;;;;;7.85;7.10;;;;;;;30.73;68.78;100809.66;5077566;28;66156;-32
2022/06/26 01:17:50;;;;;;;14.10;6.75;;;;;;;30.79;68.74;100821.47;5057873;28;70863;-31
2022/06/26 01:20:22;;;;;;;10.93;6.43;;;;;;;30.79;69.11;100825.00;5056772;28;66449;-32
2022/06/26 01:23:05;;;;;;;8.48;6.10;;;;;;;30.72;68.18;100814.22;5079587;27;69999;-33
2022/06/26 01:25:47;;;;;;;9.75;6.15;;;;;;;30.75;68.01;100812.13;5076537;28;65551;-33
2022/06/26 01:28:18;;;;;;;7.47;6.75;;;;;;;30.80;67.86;100826.69;5060942;28;71924;-32
2022/06/26 01:30:49;;;;;;;7.28;6.57;;;;;;;30.82;68.41;100831.91;5077787;28;65709;-33
2022/06/26 01:33:20;;;;;;;6.70;5.90;;;;;;;30.83;68.36;100833.53;5072790;28;69239;-32
2022/06/26 01:35:51;;;;;;;11.68;6.72;;;;;;;30.81;68.05;100825.63;5078566;28;67922;-33
2022/06/26 01:38:24;;;;;;;13.15;7.43;;;;;;;30.84;68.35;100821.66;5053612;28;70720;-33
2022/06/26 01:40:56;;;;;;;7.18;6.53;;;;;;;30.93;68.76;100837.41;5053055;28;66039;-31
2022/06/26 01:43:33;;;;;;;11.57;7.43;;;;;;;30.71;68.02;100795.50;5059441;28;69798;-32
2022/06/26 01:46:06;;;;;;;13.18;6.10;;;;;;;30.70;67.07;100781.13;5059402;28;65425;-33
2022/06/26 01:48:40;;;;;;;6.30;5.78;;;;;;;31.13;66.56;100842.66;5060808;28;70469;-32
2022/06/26 01:51:12;;;;;;;8.55;6.00;;;;;;;31.28;66.59;100849.59;5059857;28;65562;-33
2022/06/26 01:53:45;;;;;;;6.40;5.78;;;;;;;31.37;66.15;100851.84;5069000;28;70176;-32
2022/06/26 01:56:16;;;;;;;6.13;5.53;;;;;;;31.46;65.94;100848.84;5059693;28;67993;-32
2022/06/26 01:58:51;;;;;;;5.35;4.95;;;;;;;31.56;65.46;100852.66;5060572;28;70390;-32
2022/06/26 02:01:27;;;;;;;7.68;5.10;;;;;;;31.60;65.02;100847.63;5058143;28;66312;-34
2022/06/26 02:03:58;;;;;;;7.13;6.03;;;;;;;31.67;64.78;100850.25;5056191;28;69959;-32
2022/06/26 02:06:31;;;;;;;6.70;5.28;;;;;;;31.72;64.50;100851.22;5078744;28;64954;-33
2022/06/26 02:09:04;;;;;;;5.85;5.35;;;;;;;31.82;64.25;100861.56;5060541;28;69503;-32
2022/06/26 02:14:26;;;;;;;5.43;5.03;;;;;;;31.92;63.50;100850.19;5066422;28;69285;-33
2022/06/26 02:17:01;;;;;;;5.53;5.13;;;;;;;31.99;63.16;100843.63;5059922;28;66074;-31
2022/06/26 02:19:32;;;;;;;7.65;5.30;;;;;;;32.03;63.34;100852.94;5077084;28;70442;-33
2022/06/26 02:22:03;;;;;;;5.50;5.10;;;;;;;31.94;63.34;100832.63;5060056;28;66858;-33
2022/06/26 02:24:34;;;;;;;6.57;4.77;;;;;;;32.11;63.04;100848.28;5060675;28;69452;-33
2022/06/26 02:27:05;;;;;;;7.10;4.70;;;;;;;32.16;62.62;100840.28;5060048;28;66133;-33
2022/06/26 02:29:36;;;;;;;4.50;4.10;;;;;;;32.19;62.82;100839.81;5057436;28;70505;-32
2022/06/26 02:32:08;;;;;;;5.00;4.60;;;;;;;32.23;62.53;100846.41;5061818;28;65522;-32
2022/06/26 02:34:39;;;;;;;5.40;4.80;;;;;;;32.25;62.29;100844.31;5059768;28;71244;-32
2022/06/26 02:37:11;;;;;;;5.75;4.80;;;;;;;32.27;61.91;100836.78;5056771;28;65887;-32
2022/06/26 02:39:44;;;;;;;4.45;4.13;;;;;;;32.24;61.97;100820.94;5072681;28;69103;-32
2022/06/26 02:42:15;;;;;;;4.18;3.88;;;;;;;32.30;61.92;100822.72;5077647;28;65212;-32
2022/06/26 02:44:47;;;;;;;4.97;4.57;;;;;;;32.38;61.81;100833.25;5053800;28;69965;-32
2022/06/26 02:47:18;;;;;;;4.15;3.85;;;;;;;32.42;61.80;100829.00;5074104;28;66239;-32
2022/06/26 02:49:49;;;;;;;4.20;3.90;;;;;;;32.43;61.65;100825.25;5075314;28;70002;-32
2022/06/26 02:52:23;;;;;;;4.25;3.90;;;;;;;32.49;61.45;100834.41;5060142;28;66432;-31
2022/06/26 02:54:54;;;;;;;4.17;3.87;;;;;;;32.46;61.40;100824.81;5058514;28;70698;-33
2022/06/26 02:57:28;;;;;;;4.72;4.30;;;;;;;32.53;61.32;100829.31;5059741;28;65533;-32
2022/06/26 02:59:59;;;;;;;7.03;4.00;;;;;;;32.54;61.10;100822.81;5059699;28;70070;-32
2022/06/26 03:02:34;;;;;;;4.22;3.92;;;;;;;32.47;61.23;100810.19;5058803;28;65638;-32
2022/06/26 03:05:11;;;;;;;5.82;3.85;;;;;;;32.57;61.20;100819.63;5078246;28;43123;-33
2022/06/26 03:07:43;;;;;;;3.72;3.45;;;;;;;32.59;61.06;100822.94;5051921;28;65604;-33
2022/06/26 03:10:14;;;;;;;3.88;3.58;;;;;;;32.60;61.02;100813.75;5050598;28;69012;-33
2022/06/26 03:12:47;;;;;;;5.88;3.55;;;;;;;32.63;60.94;100807.84;5070327;28;66084;-33
2022/06/26 03:15:19;;;;;;;10.25;4.45;;;;;;;32.48;61.67;100808.28;5053889;28;70045;-34
2022/06/26 03:17:56;;;;;;;4.45;4.15;;;;;;;32.37;62.82;100804.44;5056746;28;65091;-33
2022/06/26 03:20:28;;;;;;;8.48;4.38;;;;;;;32.28;62.87;100803.13;5067877;28;69431;-33
2022/06/26 03:22:59;;;;;;;5.37;4.83;;;;;;;32.25;62.85;100801.72;5075644;28;64868;-33
2022/06/26 03:25:30;;;;;;;7.43;4.40;;;;;;;32.17;63.15;100787.63;5059686;28;70125;-32
2022/06/26 03:28:03;;;;;;;14.25;5.13;;;;;;;32.21;63.44;100794.28;5060607;28;66052;-33
2022/06/26 03:30:40;;;;;;;7.07;5.20;;;;;;;32.04;63.08;100778.66;5059330;28;70730;-33
2022/06/26 03:33:11;;;;;;;7.73;4.57;;;;;;;32.16;63.29;100792.25;5061620;28;65656;-32
2022/06/26 03:35:42;;;;;;;9.88;5.15;;;;;;;32.16;64.31;100792.25;5074588;28;71054;-31
2022/06/26 03:38:14;;;;;;;12.48;4.10;;;;;;;32.21;63.49;100794.28;5051487;28;66554;-33
2022/06/26 03:40:47;;;;;;;22.08;4.60;;;;;;;32.13;63.46;100751.19;5051931;28;70248;-32
2022/06/26 03:43:22;;;;;;;27.50;5.70;;;;;;;32.49;63.74;100786.34;5057248;28;66369;-33
2022/06/26 03:45:53;;;;;;;35.45;6.07;;;;;;;32.35;63.18;100730.56;5071985;28;70388;-32
2022/06/26 03:48:28;;;;;;;6.15;5.22;;;;;;;32.60;63.70;100783.88;5056015;28;64560;-32
2022/06/26 03:51:02;;;;;;;15.20;6.68;;;;;;;32.52;64.98;100770.66;5056427;28;70008;-33
2022/06/26 03:53:36;;;;;;;14.13;7.25;;;;;;;32.55;66.76;100789.19;5060499;28;66952;-32
2022/06/26 03:56:07;;;;;;;8.98;6.80;;;;;;;32.48;66.98;100781.13;5071104;28;70393;-30
2022/06/26 03:58:39;;;;;;;11.63;6.28;;;;;;;32.45;66.65;100774.25;5051595;28;66459;-35
2022/06/26 04:01:12;;;;;;;12.60;7.28;;;;;;;32.46;67.53;100772.41;5053971;28;70160;-32
2022/06/26 04:03:47;;;;;;;8.05;6.38;;;;;;;32.47;66.75;100776.78;5046339;28;66467;-36
2022/06/26 04:06:18;;;;;;;5.47;4.97;;;;;;;32.43;65.15;100770.97;5080743;28;69873;-33
2022/06/26 04:08:49;;;;;;;5.43;4.40;;;;;;;32.41;63.73;100772.25;5073687;28;64969;-32
2022/06/26 04:11:20;;;;;;;12.00;3.95;;;;;;;32.44;63.21;100775.31;5060650;28;70213;-33
2022/06/26 04:13:57;;;;;;;7.40;3.55;;;;;;;32.44;62.85;100760.91;5060406;27;65822;-32
2022/06/26 04:16:28;;;;;;;13.95;4.65;;;;;;;32.47;62.54;100765.91;5057035;28;70154;-32
2022/06/26 04:19:01;;;;;;;7.20;4.57;;;;;;;32.52;62.81;100767.94;5058907;28;66689;-32
2022/06/26 04:21:32;;;;;;;5.33;3.87;;;;;;;32.53;62.80;100769.59;5082527;28;69633;-32
2022/06/26 04:24:08;;;;;;;3.65;3.35;;;;;;;32.53;62.87;100772.28;5058384;28;66663;-33
2022/06/26 04:26:39;;;;;;;5.13;3.40;;;;;;;32.43;62.81;100773.69;5076650;28;70027;-34
2022/06/26 04:29:10;;;;;;;4.80;3.30;;;;;;;32.58;62.60;100775.13;5077921;28;64928;-33
2022/06/26 04:31:42;;;;;;;3.22;2.95;;;;;;;32.70;62.34;100775.97;5052682;28;69882;-33
2022/06/26 04:34:13;;;;;;;4.60;3.33;;;;;;;32.77;62.11;100770.44;5044080;28;66505;-33
2022/06/26 04:36:44;;;;;;;3.77;3.00;;;;;;;32.86;62.17;100772.53;5061181;28;69268;-33
2022/06/26 04:39:21;;;;;;;9.02;3.10;;;;;;;32.93;61.69;100762.41;5061916;28;66640;-32
2022/06/26 04:41:52;;;;;;;7.60;3.20;;;;;;;32.96;61.56;100749.38;5079874;28;69906;-33
2022/06/26 04:44:25;;;;;;;4.25;3.00;;;;;;;32.98;61.38;100744.53;5060205;28;66993;-33
2022/06/26 04:46:59;;;;;;;4.80;3.03;;;;;;;33.10;60.92;100745.41;5052861;28;70193;-32
2022/06/26 04:49:34;;;;;;;9.52;3.10;;;;;;;33.03;61.15;100722.94;5077427;28;66392;-32
2022/06/26 04:52:05;;;;;;;3.05;2.75;;;;;;;33.18;60.88;100736.84;5060448;28;69997;-33
2022/06/26 04:54:43;;;;;;;4.03;2.88;;;;;;;33.22;60.54;100743.47;5059483;28;66408;-33
2022/06/26 04:57:14;;;;;;;8.20;2.70;;;;;;;33.23;60.85;100728.81;5059274;28;70017;-33
2022/06/26 04:59:49;;;;;;;2.75;2.55;;;;;;;33.26;60.84;100716.63;5052513;28;66052;-33
2022/06/26 05:02:21;;;;;;;4.47;2.63;;;;;;;33.21;60.70;100706.50;5042610;28;69625;-32
2022/06/26 05:05:24;;;;;;;3.72;2.67;;;;;;;33.28;60.43;100707.16;5057924;28;66193;-32
2022/06/26 05:08:11;;;;;;;3.97;2.65;;;;;;;33.22;60.18;100689.09;5060593;28;70279;-34
2022/06/26 05:10:42;;;;;;;4.57;2.40;;;;;;;33.28;60.61;100696.28;5062524;28;66961;-34
2022/06/26 05:13:13;;;;;;;5.72;2.80;;;;;;;33.23;61.11;100704.34;5061498;28;69316;-33
2022/06/26 05:15:46;;;;;;;4.15;2.80;;;;;;;33.08;61.47;100706.75;5077753;28;65219;-32
2022/06/26 05:18:18;;;;;;;3.80;2.75;;;;;;;32.88;59.91;100702.50;5059150;28;70361;-32
2022/06/26 05:21:13;;;;;;;8.20;2.42;;;;;;;32.68;58.97;100699.31;5057493;28;66310;-33
2022/06/26 05:24:00;;;;;;;2.88;2.25;;;;;;;32.51;59.13;100688.34;5073727;27;69716;-32
2022/06/26 05:26:32;;;;;;;8.70;2.88;;;;;;;32.45;59.44;100692.78;5060738;28;66070;-33
2022/06/26 05:29:03;;;;;;;10.00;2.80;;;;;;;32.31;59.83;100685.94;5060217;28;69653;-35
2022/06/26 05:31:34;;;;;;;4.63;2.97;;;;;;;32.22;59.23;100690.06;5057730;28;65429;-33
2022/06/26 05:34:06;;;;;;;11.15;3.35;;;;;;;32.13;58.47;100694.19;5069183;28;69075;-33
2022/06/26 05:36:40;;;;;;;9.73;3.10;;;;;;;32.05;58.68;100685.31;5059182;28;65795;-34
2022/06/26 05:39:11;;;;;;;;;;;;;;;31.69;59.87;100688.97;5058605;28;69140;-33
2022/06/26 05:41:42;;;;;;;15.20;2.80;;;;;;;31.95;59.08;100676.91;5078275;28;66568;-31
2022/06/26 05:44:13;;;;;;;16.13;2.95;;;;;;;31.91;58.48;100675.75;5073985;28;69587;-32
2022/06/26 05:46:51;;;;;;;6.80;2.95;;;;;;;31.91;57.63;100664.91;5076160;27;66613;-31
2022/06/26 05:49:51;;;;;;;3.72;2.30;;;;;;;31.87;57.13;100658.22;5058501;28;69970;-31
2022/06/26 05:52:42;;;;;;;7.93;2.15;;;;;;;31.67;56.61;100631.41;5066618;28;66431;-33
2022/06/26 05:55:17;;;;;;;7.75;2.50;;;;;;;31.81;55.99;100659.16;5076942;28;70370;-35
2022/06/26 05:58:04;;;;;;;3.55;2.38;;;;;;;31.78;55.44;100648.78;5057335;28;65514;-31
2022/06/26 06:01:10;;;;;;;6.25;2.33;;;;;;;31.74;54.25;100644.91;5060198;28;69489;-32
2022/06/26 06:03:41;;;;;;;4.65;2.25;;;;;;;31.74;53.68;100631.34;5074943;28;66312;-33
2022/06/26 06:06:12;;;;;;;4.23;1.73;;;;;;;31.76;53.29;100634.63;5062314;28;71620;-32
2022/06/26 06:08:44;;;;;;;2.40;1.83;;;;;;;31.72;53.47;100628.03;5061027;28;65405;-33
2022/06/26 06:11:15;;;;;;;3.15;1.38;;;;;;;31.44;52.44;100583.38;5060710;28;70091;-34
2022/06/26 06:13:46;;;;;;;4.53;1.65;;;;;;;31.73;52.52;100618.81;5046085;28;65671;-33
2022/06/26 06:16:18;;;;;;;;;;;;;;;31.44;51.97;100626.75;5076233;28;69440;-33
2022/06/26 06:18:49;;;;;;;2.38;1.80;;;;;;;31.73;51.40;100619.66;5062728;28;65886;-34
2022/06/26 06:21:20;;;;;;;2.85;1.35;;;;;;;31.77;50.89;100614.59;5055514;28;70852;-34
2022/06/26 06:23:51;;;;;;;1.92;1.70;;;;;;;31.77;50.43;100601.84;5061728;28;67273;-34
2022/06/26 06:26:23;;;;;;;1.60;1.40;;;;;;;31.79;50.21;100602.47;5070645;28;69441;-34
2022/06/26 06:29:03;;;;;;;2.65;1.08;;;;;;;31.81;49.45;100588.66;5060530;28;66312;-36
2022/06/26 06:31:34;;;;;;;1.67;1.10;;;;;;;31.86;49.47;100588.78;5063172;28;69312;-33
2022/06/26 06:34:08;;;;;;;1.50;1.00;;;;;;;31.90;49.01;100584.56;5045388;28;65967;-33
2022/06/26 06:36:40;;;;;;;1.83;1.17;;;;;;;31.92;48.52;100579.72;5073173;27;70779;-34
2022/06/26 06:39:13;;;;;;;3.15;1.17;;;;;;;31.96;48.70;100574.69;5049228;28;66550;-35
2022/06/26 06:41:45;;;;;;;1.60;1.30;;;;;;;31.96;48.32;100570.06;5076099;28;69353;-36
2022/06/26 06:44:16;;;;;;;1.42;1.30;;;;;;;31.99;48.13;100574.22;5057671;28;66888;-34
2022/06/26 06:47:25;;;;;;;1.50;1.02;;;;;;;32.01;47.99;100570.19;5062093;28;70119;-35
2022/06/26 06:50:15;;;;;;;1.48;1.10;;;;;;;32.02;47.44;100555.56;5077988;28;66742;-35
2022/06/26 06:52:53;;;;;;;5.95;1.30;;;;;;;31.93;47.32;100540.72;5043170;28;69839;-35
2022/06/26 06:55:24;;;;;;;1.80;1.20;;;;;;;32.04;47.57;100558.06;5077002;28;65638;-36
2022/06/26 06:57:58;;;;;;;1.77;1.20;;;;;;;32.02;47.38;100550.13;5058326;28;69614;-36
2022/06/26 07:00:29;;;;;;;1.37;0.87;;;;;;;32.00;47.36;100548.72;5074755;27;66524;-35
2022/06/26 07:03:01;;;;;;;1.67;1.30;;;;;;;31.90;46.95;100514.03;5075607;27;70356;-35
2022/06/26 07:05:33;;;;;;;1.15;1.02;;;;;;;32.01;46.64;100532.22;5053750;28;65514;-35
2022/06/26 07:08:04;;;;;;;1.73;1.30;;;;;;;32.03;46.68;100532.78;5070252;28;69105;-36
2022/06/26 07:10:35;;;;;;;1.45;1.35;;;;;;;32.05;46.84;100533.38;5074077;28;65389;-35
2022/06/26 07:13:10;;;;;;;2.85;1.48;;;;;;;31.99;45.91;100518.06;5077364;28;69960;-35
2022/06/26 07:15:40;;;;;;;1.67;1.17;;;;;;;32.10;45.75;100521.00;5072532;28;65760;-36
2022/06/26 07:18:12;;;;;;;1.67;1.30;;;;;;;32.10;45.94;100526.44;5076583;28;70361;-35
2022/06/26 07:20:43;;;;;;;1.75;1.30;;;;;;;32.03;45.57;100516.50;5072438;28;66776;-34
2022/06/26 07:23:14;;;;;;;2.67;1.10;;;;;;;32.06;45.72;100528.78;5060907;28;70188;-36
2022/06/26 07:25:51;;;;;;;1.63;1.40;;;;;;;32.02;45.44;100514.88;5060712;28;66011;-36
2022/06/26 07:28:24;;;;;;;1.38;1.23;;;;;;;32.09;45.39;100516.63;5060536;28;70193;-34
2022/06/26 07:30:55;;;;;;;1.40;1.30;;;;;;;31.98;45.47;100502.84;5061710;27;65535;-36
2022/06/26 07:36:16;;;;;;;2.95;1.60;;;;;;;32.09;45.58;100513.91;5081194;28;66762;-35
2022/06/26 07:38:47;;;;;;;1.20;1.10;;;;;;;32.01;45.62;100507.81;5063212;28;68930;-35
2022/06/26 07:41:18;;;;;;;2.03;1.70;;;;;;;32.07;45.40;100510.59;5078403;28;67939;-35
2022/06/26 07:43:51;;;;;;;3.63;1.45;;;;;;;32.09;45.05;100508.50;5062086;28;70035;-36
2022/06/26 07:46:22;;;;;;;1.10;1.00;;;;;;;32.08;44.49;100485.97;5062874;27;66442;-36
2022/06/26 07:48:55;;;;;;;1.40;1.30;;;;;;;32.09;44.63;100492.22;5059032;28;70631;-35
2022/06/26 07:51:26;;;;;;;2.35;1.63;;;;;;;31.97;44.42;100474.06;5060009;28;65122;-34
2022/06/26 07:53:57;;;;;;;1.88;1.38;;;;;;;32.00;44.70;100484.44;5082094;27;70300;-34
2022/06/26 07:56:28;;;;;;;1.57;1.33;;;;;;;32.07;44.76;100483.47;5078900;28;65828;-35
2022/06/26 07:59:00;;;;;;;1.98;1.27;;;;;;;32.00;44.62;100479.00;5080228;28;70067;-35
2022/06/26 08:01:31;;;;;;;8.57;1.35;;;;;;;31.98;44.69;100474.88;5080326;28;67795;-35
2022/06/26 08:04:02;;;;;;;1.58;1.48;;;;;;;32.04;44.44;100465.81;5063705;28;69993;-35
2022/06/26 08:06:34;;;;;;;1.50;1.40;;;;;;;31.98;44.72;100447.75;5070646;28;66472;-35
2022/06/26 08:09:06;;;;;;;2.80;1.50;;;;;;;32.03;44.62;100451.41;5073928;28;70512;-37
2022/06/26 08:11:38;;;;;;;1.48;1.38;;;;;;;32.04;44.32;100453.06;5058195;28;65791;-35
2022/06/26 08:14:09;;;;;;;2.08;1.70;;;;;;;32.04;44.98;100457.66;5071298;28;70027;-36
2022/06/26 08:16:40;;;;;;;6.60;1.98;;;;;;;32.05;47.02;100460.13;5073452;28;65544;-38
2022/06/26 08:19:11;;;;;;;2.35;1.98;;;;;;;32.05;48.07;100454.69;5075675;28;70178;-35
2022/06/26 08:24:33;;;;;;;2.05;1.70;;;;;;;32.10;46.58;100456.72;5077442;28;70666;-35
2022/06/26 08:27:04;;;;;;;2.63;1.77;;;;;;;32.07;46.61;100440.06;5074679;28;66163;-35
2022/06/26 08:29:36;;;;;;;4.37;1.80;;;;;;;31.99;46.20;100444.81;5079615;28;70279;-35
2022/06/26 08:32:07;;;;;;;2.15;2.00;;;;;;;32.01;45.82;100448.13;5076133;27;65349;-35
2022/06/26 08:34:38;;;;;;;3.93;2.23;;;;;;;32.03;48.56;100445.97;5077183;28;70095;-36
2022/06/26 08:37:09;;;;;;;3.08;2.28;;;;;;;32.16;49.49;100444.91;5080767;28;66245;-36
2022/06/26 08:39:40;;;;;;;2.42;2.22;;;;;;;32.20;49.73;100434.38;5073815;28;70707;-37
2022/06/26 08:42:12;;;;;;;2.35;2.05;;;;;;;32.25;50.20;100429.88;5079599;28;65995;-37
2022/06/26 08:44:44;;;;;;;;;;;;;;;32.05;51.35;100438.44;5081031;28;69383;-36
2022/06/26 08:47:21;;;;;;;2.40;2.13;;;;;;;32.19;51.37;100400.19;5077763;28;65433;-36
2022/06/26 08:49:53;;;;;;;4.10;2.38;;;;;;;32.52;51.26;100452.97;5079006;28;69759;-36
2022/06/26 08:52:29;;;;;;;2.70;2.22;;;;;;;32.26;51.70;100400.84;5079266;28;65622;-36
2022/06/26 08:55:03;;;;;;;2.58;2.30;;;;;;;32.55;51.56;100438.91;5078828;28;69893;-37
2022/06/26 08:57:35;;;;;;;3.58;2.47;;;;;;;32.66;52.34;100440.75;5080395;28;66337;-35
2022/06/26 09:00:06;;;;;;;2.40;2.20;;;;;;;32.62;52.42;100428.72;5076809;28;69911;-36
2022/06/26 09:02:37;;;;;;;;;;;;;;;32.45;53.60;100437.59;5078035;28;66276;-36
2022/06/26 09:05:09;;;;;;;8.10;2.38;;;;;;;32.73;53.03;100433.25;5062460;28;70640;-36
2022/06/26 09:07:49;;;;;;;4.28;2.63;;;;;;;32.46;53.55;100389.63;5079114;28;66065;-36
2022/06/26 09:10:21;;;;;;;2.95;2.67;;;;;;;32.78;53.81;100427.94;5078124;28;70859;-37
2022/06/26 09:12:55;;;;;;;4.25;2.83;;;;;;;32.44;53.53;100362.66;5079304;28;65930;-36
2022/06/26 09:15:26;;;;;;;2.97;2.78;;;;;;;32.83;54.07;100428.03;5077851;28;69103;-37
2022/06/26 09:18:03;;;;;;;3.15;2.30;;;;;;;32.68;54.36;100408.72;5076359;28;65806;-35
2022/06/26 09:20:37;;;;;;;2.38;1.80;;;;;;;32.47;54.82;100381.22;5075659;28;69279;-36
2022/06/26 09:23:08;;;;;;;2.22;2.10;;;;;;;32.82;55.21;100436.41;5077345;28;66225;-36
2022/06/26 09:25:43;;;;;;;2.85;2.08;;;;;;;33.07;54.83;100438.78;5076771;28;69418;-35
2022/06/26 09:28:17;;;;;;;6.75;2.25;;;;;;;32.97;54.44;100395.13;5075742;28;67568;-37
2022/06/26 09:30:52;;;;;;;4.47;2.78;;;;;;;33.38;54.87;100440.94;5078631;28;70318;-36
2022/06/26 09:33:26;;;;;;;2.60;2.35;;;;;;;33.49;54.88;100446.50;5074523;28;65592;-36
2022/06/26 09:35:58;;;;;;;4.78;3.45;;;;;;;33.26;54.78;100404.84;5075873;28;70058;-36
2022/06/26 09:38:32;;;;;;;3.45;3.15;;;;;;;33.61;54.95;100439.13;5074725;28;66303;-35
2022/06/26 09:41:06;;;;;;;4.38;3.25;;;;;;;33.72;55.21;100435.50;5059170;28;68825;-36
2022/06/26 09:43:41;;;;;;;3.50;3.20;;;;;;;33.78;55.23;100434.47;5073550;27;66108;-35
2022/06/26 09:46:14;;;;;;;6.43;3.58;;;;;;;33.67;55.07;100408.22;5078192;28;70614;-36
2022/06/26 09:48:45;;;;;;;4.88;3.60;;;;;;;33.87;55.68;100437.59;5044179;28;66079;-36
2022/06/26 09:51:16;;;;;;;5.78;4.35;;;;;;;33.85;55.43;100428.03;5075768;28;69980;-35
2022/06/26 09:53:49;;;;;;;5.23;3.77;;;;;;;33.91;55.74;100433.31;5069128;28;66095;-35
2022/06/26 09:56:20;;;;;;;4.10;3.47;;;;;;;33.97;55.78;100439.63;5075702;28;70232;-35
2022/06/26 09:58:54;;;;;;;4.00;3.60;;;;;;;33.96;56.00;100436.09;5044040;28;65212;-36
2022/06/26 10:07:11;;;;;;;6.68;4.55;;;;;;;34.06;56.25;100473.53;5075497;28;70140;-35
2022/06/26 10:09:43;;;;;;;4.93;4.05;;;;;;;33.71;56.26;100428.41;5058768;28;65788;-36
2022/06/26 10:12:14;;;;;;;4.97;4.50;;;;;;;34.07;56.29;100498.84;5056459;28;69867;-35
2022/06/26 10:14:50;;;;;;;9.87;4.10;;;;;;;34.07;56.50;100513.25;5062042;28;65755;-36
2022/06/26 10:17:53;;;;;;;4.47;4.10;;;;;;;33.79;57.21;100485.13;5077062;28;70315;-37
2022/06/26 10:20:28;;;;;;;4.95;3.67;;;;;;;33.90;56.86;100477.06;5014136;28;66920;-35
2022/06/26 10:22:59;;;;;;;6.72;4.40;;;;;;;34.10;56.86;100507.34;5071874;28;70016;-37
2022/06/26 10:25:31;;;;;;;3.93;3.63;;;;;;;33.78;56.99;100456.25;5075247;28;66597;-36
2022/06/26 10:28:03;;;;;;;6.78;4.22;;;;;;;34.10;57.17;100507.34;5072703;28;69728;-36
2022/06/26 10:30:33;;;;;;;5.30;4.22;;;;;;;34.10;57.09;100518.22;5076772;28;66157;-36
2022/06/26 10:33:18;;;;;;;8.33;4.67;;;;;;;34.07;57.52;100540.47;5074511;28;69953;-37
2022/06/26 10:35:54;;;;;;;9.18;3.80;;;;;;;34.09;57.52;100551.94;5076262;28;65710;-37
2022/06/26 10:38:29;;;;;;;5.65;4.35;;;;;;;33.83;58.05;100514.53;5071382;28;70471;-36
2022/06/26 10:44:10;;;;;;;6.60;4.93;;;;;;;34.00;58.48;100528.94;5078125;28;69976;-35
2022/06/26 10:46:49;;;;;;;5.57;4.90;;;;;;;34.06;58.40;100532.59;5075622;28;66672;-36
2022/06/26 10:49:20;;;;;;;19.48;7.07;;;;;;;34.05;59.52;100537.22;5070925;28;70317;-35
2022/06/26 10:51:51;;;;;;;13.48;5.38;;;;;;;34.06;58.99;100533.41;5068733;28;66737;-38
2022/06/26 10:54:27;;;;;;;5.57;5.07;;;;;;;33.90;60.86;100542.38;5073733;28;69199;-35
2022/06/26 10:57:13;;;;;;;5.00;4.55;;;;;;;33.71;61.99;100564.41;5072566;28;65640;-35
2022/06/26 10:59:45;;;;;;;4.90;4.20;;;;;;;33.41;62.48;100561.97;5072393;28;70211;-37
2022/06/26 11:02:17;;;;;;;7.07;4.95;;;;;;;33.38;62.71;100587.75;5075091;28;66223;-36
2022/06/26 11:04:50;;;;;;;6.20;5.70;;;;;;;32.70;63.00;100497.03;5075352;28;70350;-37
2022/06/26 11:07:21;;;;;;;6.68;6.10;;;;;;;33.21;63.60;100586.06;5050307;28;65866;-36
2022/06/26 11:09:56;;;;;;;5.88;5.35;;;;;;;33.01;63.80;100564.75;5054396;28;70306;-36
2022/06/26 11:12:27;;;;;;;4.97;4.60;;;;;;;33.11;64.08;100581.25;5075640;28;66480;-36
2022/06/26 11:14:57;;;;;;;4.72;4.30;;;;;;;33.02;63.94;100588.16;5073672;28;70170;-35
2022/06/26 11:17:28;;;;;;;4.68;4.20;;;;;;;32.97;64.50;100586.13;5075484;28;65668;-37
2022/06/26 11:23:27;;;;;;;8.32;4.85;;;;;;;32.84;65.23;100619.81;5016913;28;66059;-36
2022/06/26 11:26:09;;;;;;;4.72;4.43;;;;;;;32.89;65.49;100624.53;5074817;28;70364;-35
2022/06/26 11:28:44;;;;;;;4.78;4.38;;;;;;;32.88;65.03;100629.16;5073111;28;65691;-41
2022/06/26 11:31:24;;;;;;;5.22;4.18;;;;;;;32.58;65.05;100593.19;5072418;28;69606;-35
2022/06/26 11:34:10;;;;;;;5.00;4.28;;;;;;;32.81;64.64;100635.78;5073651;28;66083;-35
2022/06/26 11:36:59;;;;;;;4.88;4.32;;;;;;;32.51;64.04;100603.34;5074488;28;70663;-35
2022/06/26 11:39:41;;;;;;;4.68;4.35;;;;;;;32.77;64.06;100646.31;5050416;28;65944;-36
2022/06/26 11:42:22;;;;;;;4.93;4.55;;;;;;;32.46;63.78;100602.19;5076883;28;69666;-35
2022/06/26 11:44:55;;;;;;;5.53;4.97;;;;;;;32.78;64.77;100674.28;5070591;28;66556;-34
2022/06/26 11:47:26;;;;;;;11.82;5.32;;;;;;;32.71;64.94;100669.00;5078044;28;70527;-37
2022/06/26 11:49:57;;;;;;;5.77;4.37;;;;;;;32.66;65.45;100677.84;5077366;28;65467;-35
2022/06/26 11:52:28;;;;;;;4.53;4.18;;;;;;;32.63;65.73;100688.38;5078874;28;70842;-36
2022/06/26 11:55:01;;;;;;;7.63;4.63;;;;;;;32.26;65.53;100636.97;5075753;28;65464;-37
2022/06/26 11:57:39;;;;;;;5.70;3.67;;;;;;;32.27;65.25;100642.16;5074998;28;70274;-36
2022/06/26 12:00:12;;;;;;;5.10;3.72;;;;;;;32.55;64.99;100691.44;5075790;28;66129;-40
2022/06/26 12:02:45;;;;;;;4.25;3.05;;;;;;;32.44;64.04;100695.75;5077157;28;70117;-37
2022/06/26 12:05:25;;;;;;;9.27;3.75;;;;;;;32.11;63.94;100639.31;5075513;28;66818;-35
2022/06/26 12:07:57;;;;;;;2.85;2.65;;;;;;;32.41;63.46;100685.38;5073932;27;69272;-38
2022/06/26 12:10:30;;;;;;;;;;;;;;;32.10;64.31;100698.22;5073028;28;65323;-37
2022/06/26 12:13:00;;;;;;;;;;;;;;;32.05;64.35;100709.75;5077567;28;70359;-36
2022/06/26 12:15:33;;;;;;;3.17;2.28;;;;;;;32.26;63.85;100699.38;5076613;28;66464;-38
2022/06/26 12:18:09;;;;;;;3.55;2.50;;;;;;;32.07;63.55;100681.53;5080674;28;70210;-36